sensor_id;sensor_type;location;lat;lon;timestamp;pressure;altitude;pressure_sealevel;temperature;humidity
20015;BME280;61787;42.022;23.078;2023-03-21T00:00:24;96585.72;;;12.55;54.85
20015;BME280;61787;42.022;23.078;2023-03-21T00:01:25;96580.44;;;12.59;55.31
20015;BME280;61787;42.022;23.078;2023-03-21T00:02:27;96576.63;;;12.60;55.31
20015;BME280;61787;42.022;23.078;2023-03-21T00:03:29;96576.16;;;12.58;55.33
20015;BME280;61787;42.022;23.078;2023-03-21T00:04:31;96577.28;;;12.57;55.36
20015;BME280;61787;42.022;23.078;2023-03-21T00:05:51;96579.22;;;12.56;55.68
20015;BME280;61787;42.022;23.078;2023-03-21T00:06:54;96583.81;;;12.56;55.58
20015;BME280;61787;42.022;23.078;2023-03-21T00:07:55;96579.13;;;12.53;55.58
20015;BME280;61787;42.022;23.078;2023-03-21T00:08:57;96579.63;;;12.23;56.88
20015;BME280;61787;42.022;23.078;2023-03-21T00:09:58;96571.06;;;12.02;57.54
20015;BME280;61787;42.022;23.078;2023-03-21T00:11:13;96572.44;;;11.96;57.85
20015;BME280;61787;42.022;23.078;2023-03-21T00:12:14;96576.78;;;11.85;58.05
20015;BME280;61787;42.022;23.078;2023-03-21T00:13:17;96573.84;;;11.90;58.79
20015;BME280;61787;42.022;23.078;2023-03-21T00:14:19;96574.34;;;11.95;58.15
20015;BME280;61787;42.022;23.078;2023-03-21T00:15:21;96572.63;;;11.87;58.44
20015;BME280;61787;42.022;23.078;2023-03-21T00:16:28;96573.06;;;11.74;59.17
20015;BME280;61787;42.022;23.078;2023-03-21T00:17:35;96576.59;;;11.78;58.68
20015;BME280;61787;42.022;23.078;2023-03-21T00:18:45;96575.03;;;11.77;58.73
20015;BME280;61787;42.022;23.078;2023-03-21T00:19:47;96578.06;;;11.75;58.78
20015;BME280;61787;42.022;23.078;2023-03-21T00:20:59;96577.94;;;11.72;59.44
20015;BME280;61787;42.022;23.078;2023-03-21T00:22:21;96574.25;;;11.76;59.25
20015;BME280;61787;42.022;23.078;2023-03-21T00:23:27;96586.66;;;11.81;59.20
20015;BME280;61787;42.022;23.078;2023-03-21T00:24:29;96587.69;;;11.92;58.31
20015;BME280;61787;42.022;23.078;2023-03-21T00:25:31;96589.34;;;11.96;58.26
20015;BME280;61787;42.022;23.078;2023-03-21T00:26:33;96594.81;;;12.00;57.85
20015;BME280;61787;42.022;23.078;2023-03-21T00:27:36;96595.69;;;12.04;58.06
20015;BME280;61787;42.022;23.078;2023-03-21T00:28:58;96591.88;;;12.05;57.36
20015;BME280;61787;42.022;23.078;2023-03-21T00:29:59;96594.19;;;12.07;57.84
20015;BME280;61787;42.022;23.078;2023-03-21T00:31:01;96594.81;;;12.00;58.25
20015;BME280;61787;42.022;23.078;2023-03-21T00:32:03;96592.41;;;11.95;57.98
20015;BME280;61787;42.022;23.078;2023-03-21T00:33:05;96596.28;;;11.98;58.06
20015;BME280;61787;42.022;23.078;2023-03-21T00:34:22;96601.72;;;12.01;57.90
20015;BME280;61787;42.022;23.078;2023-03-21T00:35:43;96597.25;;;12.05;57.39
20015;BME280;61787;42.022;23.078;2023-03-21T00:37:06;96596.34;;;12.01;57.70
20015;BME280;61787;42.022;23.078;2023-03-21T00:38:09;96596.47;;;12.05;57.99
20015;BME280;61787;42.022;23.078;2023-03-21T00:39:11;96601.84;;;12.05;57.63
20015;BME280;61787;42.022;23.078;2023-03-21T00:40:14;96598.38;;;12.04;57.37
20015;BME280;61787;42.022;23.078;2023-03-21T00:41:31;96598.53;;;11.95;57.50
20015;BME280;61787;42.022;23.078;2023-03-21T00:42:43;96595.69;;;11.88;58.19
20015;BME280;61787;42.022;23.078;2023-03-21T00:43:45;96588.03;;;11.75;58.67
20015;BME280;61787;42.022;23.078;2023-03-21T00:44:46;96591.19;;;11.65;59.24
20015;BME280;61787;42.022;23.078;2023-03-21T00:45:49;96594.56;;;11.62;59.47
20015;BME280;61787;42.022;23.078;2023-03-21T00:46:51;96595.53;;;11.53;58.88
20015;BME280;61787;42.022;23.078;2023-03-21T00:48:07;96596.69;;;11.40;59.38
20015;BME280;61787;42.022;23.078;2023-03-21T00:49:09;96597.28;;;11.34;60.01
20015;BME280;61787;42.022;23.078;2023-03-21T00:50:10;96599.63;;;11.35;60.21
20015;BME280;61787;42.022;23.078;2023-03-21T00:51:14;96602.88;;;11.29;60.21
20015;BME280;61787;42.022;23.078;2023-03-21T00:52:22;96598.13;;;11.22;60.65
20015;BME280;61787;42.022;23.078;2023-03-21T00:53:41;96599.47;;;11.16;61.08
20015;BME280;61787;42.022;23.078;2023-03-21T00:54:43;96607.78;;;11.11;61.46
20015;BME280;61787;42.022;23.078;2023-03-21T00:55:44;96602.66;;;11.06;60.99
20015;BME280;61787;42.022;23.078;2023-03-21T00:56:46;96594.84;;;11.01;61.58
20015;BME280;61787;42.022;23.078;2023-03-21T00:57:48;96592.72;;;10.94;61.88
20015;BME280;61787;42.022;23.078;2023-03-21T00:59:01;96587.06;;;10.84;62.49
20015;BME280;61787;42.022;23.078;2023-03-21T01:00:03;96585.19;;;10.72;63.31
20015;BME280;61787;42.022;23.078;2023-03-21T01:01:07;96582.22;;;10.61;63.18
20015;BME280;61787;42.022;23.078;2023-03-21T01:02:10;96580.75;;;10.52;63.89
20015;BME280;61787;42.022;23.078;2023-03-21T01:03:15;96578.19;;;10.43;63.43
20015;BME280;61787;42.022;23.078;2023-03-21T01:04:26;96583.38;;;10.36;63.40
20015;BME280;61787;42.022;23.078;2023-03-21T01:05:29;96580.22;;;10.34;63.40
20015;BME280;61787;42.022;23.078;2023-03-21T01:06:50;96579.66;;;10.41;63.52
20015;BME280;61787;42.022;23.078;2023-03-21T01:07:51;96573.63;;;10.44;64.23
20015;BME280;61787;42.022;23.078;2023-03-21T01:08:53;96579.63;;;10.53;64.03
20015;BME280;61787;42.022;23.078;2023-03-21T01:09:55;96587.91;;;10.60;63.82
20015;BME280;61787;42.022;23.078;2023-03-21T01:11:01;96586.97;;;10.68;63.57
20015;BME280;61787;42.022;23.078;2023-03-21T01:12:03;96589.19;;;10.78;63.57
20015;BME280;61787;42.022;23.078;2023-03-21T01:13:05;96587.94;;;10.88;63.40
20015;BME280;61787;42.022;23.078;2023-03-21T01:14:06;96588.16;;;10.95;63.03
20015;BME280;61787;42.022;23.078;2023-03-21T01:15:23;96584.66;;;11.06;62.79
20015;BME280;61787;42.022;23.078;2023-03-21T01:16:24;96579.91;;;11.16;61.32
20015;BME280;61787;42.022;23.078;2023-03-21T01:17:26;96578.09;;;11.20;62.17
20015;BME280;61787;42.022;23.078;2023-03-21T01:18:28;96584.94;;;11.17;62.24
20015;BME280;61787;42.022;23.078;2023-03-21T01:19:30;96581.56;;;11.20;62.29
20015;BME280;61787;42.022;23.078;2023-03-21T01:20:52;96580.53;;;11.25;62.00
20015;BME280;61787;42.022;23.078;2023-03-21T01:21:54;96587.47;;;11.26;61.89
20015;BME280;61787;42.022;23.078;2023-03-21T01:22:56;96582.91;;;11.26;61.93
20015;BME280;61787;42.022;23.078;2023-03-21T01:23:57;96583.75;;;11.30;61.21
20015;BME280;61787;42.022;23.078;2023-03-21T01:24:59;96581.00;;;11.27;61.62
20015;BME280;61787;42.022;23.078;2023-03-21T01:26:19;96582.34;;;11.21;62.13
20015;BME280;61787;42.022;23.078;2023-03-21T01:27:21;96583.47;;;11.20;61.49
20015;BME280;61787;42.022;23.078;2023-03-21T01:28:25;96575.09;;;11.21;61.88
20015;BME280;61787;42.022;23.078;2023-03-21T01:29:27;96575.53;;;11.23;62.06
20015;BME280;61787;42.022;23.078;2023-03-21T01:30:29;96579.75;;;11.24;60.89
20015;BME280;61787;42.022;23.078;2023-03-21T01:31:37;96577.53;;;11.26;61.27
20015;BME280;61787;42.022;23.078;2023-03-21T01:32:38;96573.72;;;11.27;61.04
20015;BME280;61787;42.022;23.078;2023-03-21T01:33:41;96573.03;;;11.30;60.90
20015;BME280;61787;42.022;23.078;2023-03-21T01:34:42;96566.53;;;11.31;60.70
20015;BME280;61787;42.022;23.078;2023-03-21T01:35:44;96568.44;;;11.31;60.75
20015;BME280;61787;42.022;23.078;2023-03-21T01:37:00;96569.03;;;11.24;61.42
20015;BME280;61787;42.022;23.078;2023-03-21T01:38:02;96569.72;;;11.21;60.63
20015;BME280;61787;42.022;23.078;2023-03-21T01:39:04;96563.47;;;11.17;61.37
20015;BME280;61787;42.022;23.078;2023-03-21T01:40:07;96572.66;;;11.16;60.70
20015;BME280;61787;42.022;23.078;2023-03-21T01:41:27;96566.16;;;11.17;60.72
20015;BME280;61787;42.022;23.078;2023-03-21T01:42:43;96569.97;;;11.16;60.79
20015;BME280;61787;42.022;23.078;2023-03-21T01:43:45;96565.81;;;11.19;61.13
20015;BME280;61787;42.022;23.078;2023-03-21T01:45:00;96565.06;;;11.18;61.18
20015;BME280;61787;42.022;23.078;2023-03-21T01:47:10;96569.72;;;11.21;60.41
20015;BME280;61787;42.022;23.078;2023-03-21T01:48:13;96570.59;;;11.25;60.69
20015;BME280;61787;42.022;23.078;2023-03-21T01:49:21;96571.47;;;11.29;60.67
20015;BME280;61787;42.022;23.078;2023-03-21T01:50:26;96562.28;;;11.30;60.05
20015;BME280;61787;42.022;23.078;2023-03-21T01:51:29;96564.19;;;11.30;60.42
20015;BME280;61787;42.022;23.078;2023-03-21T01:52:35;96555.19;;;11.22;61.05
20015;BME280;61787;42.022;23.078;2023-03-21T01:53:40;96560.16;;;11.08;61.39
20015;BME280;61787;42.022;23.078;2023-03-21T01:54:43;96561.41;;;10.98;62.58
20015;BME280;61787;42.022;23.078;2023-03-21T01:55:47;96561.31;;;10.95;61.92
20015;BME280;61787;42.022;23.078;2023-03-21T01:56:53;96562.88;;;10.96;62.19
20015;BME280;61787;42.022;23.078;2023-03-21T01:57:55;96561.41;;;10.98;62.15
20015;BME280;61787;42.022;23.078;2023-03-21T01:59:10;96558.88;;;10.90;62.65
20015;BME280;61787;42.022;23.078;2023-03-21T02:00:15;96569.22;;;10.76;62.69
20015;BME280;61787;42.022;23.078;2023-03-21T02:01:17;96562.75;;;10.64;63.73
20015;BME280;61787;42.022;23.078;2023-03-21T02:02:29;96562.66;;;10.61;63.78
20015;BME280;61787;42.022;23.078;2023-03-21T02:03:31;96562.09;;;10.55;64.21
20015;BME280;61787;42.022;23.078;2023-03-21T02:04:39;96563.00;;;10.47;63.88
20015;BME280;61787;42.022;23.078;2023-03-21T02:07:11;96553.66;;;10.41;65.40
20015;BME280;61787;42.022;23.078;2023-03-21T02:08:14;96560.00;;;10.37;64.88
20015;BME280;61787;42.022;23.078;2023-03-21T02:09:19;96553.19;;;10.27;65.10
20015;BME280;61787;42.022;23.078;2023-03-21T02:10:22;96549.19;;;10.21;66.28
20015;BME280;61787;42.022;23.078;2023-03-21T02:11:24;96550.31;;;10.20;65.78
20015;BME280;61787;42.022;23.078;2023-03-21T02:12:27;96550.75;;;10.22;66.16
20015;BME280;61787;42.022;23.078;2023-03-21T02:13:29;96555.56;;;10.29;65.68
20015;BME280;61787;42.022;23.078;2023-03-21T02:14:32;96547.19;;;10.30;65.49
20015;BME280;61787;42.022;23.078;2023-03-21T02:15:36;96557.91;;;10.30;65.90
20015;BME280;61787;42.022;23.078;2023-03-21T02:16:42;96546.16;;;10.22;66.63
20015;BME280;61787;42.022;23.078;2023-03-21T02:17:52;96544.50;;;10.18;66.31
20015;BME280;61787;42.022;23.078;2023-03-21T02:23:10;96543.16;;;10.24;66.77
20015;BME280;61787;42.022;23.078;2023-03-21T02:25:36;96541.38;;;10.04;66.57
20015;BME280;61787;42.022;23.078;2023-03-21T02:28:47;96544.19;;;10.19;66.32
20015;BME280;61787;42.022;23.078;2023-03-21T02:34:33;96552.50;;;10.54;64.86
20015;BME280;61787;42.022;23.078;2023-03-21T02:35:51;96548.00;;;10.58;64.61
20015;BME280;61787;42.022;23.078;2023-03-21T02:38:30;96547.13;;;10.66;64.54
20015;BME280;61787;42.022;23.078;2023-03-21T02:39:49;96548.31;;;10.69;64.34
20015;BME280;61787;42.022;23.078;2023-03-21T02:41:16;96549.19;;;10.73;63.30
20015;BME280;61787;42.022;23.078;2023-03-21T02:44:15;96547.84;;;10.79;63.23
20015;BME280;61787;42.022;23.078;2023-03-21T02:45:27;96551.66;;;10.78;62.66
20015;BME280;61787;42.022;23.078;2023-03-21T02:46:41;96550.47;;;10.63;63.47
20015;BME280;61787;42.022;23.078;2023-03-21T02:48:01;96548.00;;;10.58;63.90
20015;BME280;61787;42.022;23.078;2023-03-21T02:49:09;96552.25;;;10.59;64.27
20015;BME280;61787;42.022;23.078;2023-03-21T02:50:20;96550.38;;;10.60;63.45
20015;BME280;61787;42.022;23.078;2023-03-21T02:51:26;96543.53;;;10.62;63.98
20015;BME280;61787;42.022;23.078;2023-03-21T02:52:32;96539.72;;;10.63;63.29
20015;BME280;61787;42.022;23.078;2023-03-21T02:53:44;96544.44;;;10.66;62.53
20015;BME280;61787;42.022;23.078;2023-03-21T02:55:00;96542.19;;;10.68;63.32
20015;BME280;61787;42.022;23.078;2023-03-21T02:56:06;96550.31;;;10.72;63.11
20015;BME280;61787;42.022;23.078;2023-03-21T02:57:11;96546.63;;;10.77;62.14
20015;BME280;61787;42.022;23.078;2023-03-21T02:58:16;96545.50;;;10.78;62.66
20015;BME280;61787;42.022;23.078;2023-03-21T02:59:21;96541.50;;;10.72;63.22
20015;BME280;61787;42.022;23.078;2023-03-21T03:00:30;96541.50;;;10.72;63.30
20015;BME280;61787;42.022;23.078;2023-03-21T03:01:32;96537.50;;;10.65;63.69
20015;BME280;61787;42.022;23.078;2023-03-21T03:02:34;96538.41;;;10.57;63.57
20015;BME280;61787;42.022;23.078;2023-03-21T03:03:36;96537.97;;;10.55;64.15
20015;BME280;61787;42.022;23.078;2023-03-21T03:04:39;96539.31;;;10.49;64.16
20015;BME280;61787;42.022;23.078;2023-03-21T03:05:47;96536.88;;;10.32;64.15
20015;BME280;61787;42.022;23.078;2023-03-21T03:10:06;96528.16;;;10.11;65.63
20015;BME280;61787;42.022;23.078;2023-03-21T03:17:35;96536.19;;;9.50;68.24
20015;BME280;61787;42.022;23.078;2023-03-21T03:18:52;96536.84;;;9.47;68.85
20015;BME280;61787;42.022;23.078;2023-03-21T03:21:41;96532.03;;;9.28;69.36
20015;BME280;61787;42.022;23.078;2023-03-21T03:24:05;96526.75;;;9.20;69.38
20015;BME280;61787;42.022;23.078;2023-03-21T03:25:13;96532.06;;;9.08;69.80
20015;BME280;61787;42.022;23.078;2023-03-21T03:26:44;96534.59;;;9.04;70.52
20015;BME280;61787;42.022;23.078;2023-03-21T03:27:48;96526.28;;;9.06;69.90
20015;BME280;61787;42.022;23.078;2023-03-21T03:28:58;96526.28;;;9.06;69.92
20015;BME280;61787;42.022;23.078;2023-03-21T03:30:04;96531.34;;;8.98;70.36
20015;BME280;61787;42.022;23.078;2023-03-21T03:31:10;96524.00;;;8.95;70.76
20015;BME280;61787;42.022;23.078;2023-03-21T03:32:22;96530.47;;;8.94;70.73
20015;BME280;61787;42.022;23.078;2023-03-21T03:33:26;96520.44;;;8.91;71.34
20015;BME280;61787;42.022;23.078;2023-03-21T03:34:33;96526.22;;;8.93;70.74
20015;BME280;61787;42.022;23.078;2023-03-21T03:35:39;96535.53;;;8.87;71.15
20015;BME280;61787;42.022;23.078;2023-03-21T03:36:44;96539.09;;;8.79;71.35
20015;BME280;61787;42.022;23.078;2023-03-21T03:37:57;96542.06;;;8.78;70.78
20015;BME280;61787;42.022;23.078;2023-03-21T03:39:03;96543.00;;;8.82;71.13
20015;BME280;61787;42.022;23.078;2023-03-21T03:41:13;96530.88;;;8.84;70.98
20015;BME280;61787;42.022;23.078;2023-03-21T03:42:28;96538.41;;;8.82;71.52
20015;BME280;61787;42.022;23.078;2023-03-21T03:43:43;96530.88;;;8.84;70.79
20015;BME280;61787;42.022;23.078;2023-03-21T03:44:47;96528.00;;;8.89;70.96
20015;BME280;61787;42.022;23.078;2023-03-21T03:46:04;96531.66;;;8.85;71.53
20015;BME280;61787;42.022;23.078;2023-03-21T03:47:56;96534.03;;;8.66;71.97
20015;BME280;61787;42.022;23.078;2023-03-21T03:49:30;96526.97;;;8.61;71.86
20015;BME280;61787;42.022;23.078;2023-03-21T03:52:09;96526.63;;;8.63;72.65
20015;BME280;61787;42.022;23.078;2023-03-21T03:53:15;96531.25;;;8.74;72.67
20015;BME280;61787;42.022;23.078;2023-03-21T03:54:32;96528.66;;;8.86;71.96
20015;BME280;61787;42.022;23.078;2023-03-21T03:55:36;96525.09;;;8.94;71.25
20015;BME280;61787;42.022;23.078;2023-03-21T03:56:39;96524.69;;;9.05;70.64
20015;BME280;61787;42.022;23.078;2023-03-21T03:57:41;96531.63;;;9.06;70.24
20015;BME280;61787;42.022;23.078;2023-03-21T03:58:42;96523.00;;;9.00;70.30
20015;BME280;61787;42.022;23.078;2023-03-21T03:59:46;96526.41;;;8.88;71.13
20015;BME280;61787;42.022;23.078;2023-03-21T04:00:48;96524.84;;;8.87;71.05
20015;BME280;61787;42.022;23.078;2023-03-21T04:01:50;96527.34;;;8.92;71.00
20015;BME280;61787;42.022;23.078;2023-03-21T04:02:51;96529.66;;;8.94;70.99
20015;BME280;61787;42.022;23.078;2023-03-21T04:03:53;96528.19;;;8.84;71.17
20015;BME280;61787;42.022;23.078;2023-03-21T04:05:12;96535.50;;;8.75;70.88
20015;BME280;61787;42.022;23.078;2023-03-21T04:06:15;96534.72;;;8.75;71.20
20015;BME280;61787;42.022;23.078;2023-03-21T04:07:17;96535.81;;;8.74;71.46
20015;BME280;61787;42.022;23.078;2023-03-21T04:08:19;96539.09;;;8.79;71.24
20015;BME280;61787;42.022;23.078;2023-03-21T04:09:24;96533.22;;;8.86;71.50
20015;BME280;61787;42.022;23.078;2023-03-21T04:10:43;96535.38;;;8.92;70.27
20015;BME280;61787;42.022;23.078;2023-03-21T04:11:45;96535.69;;;8.91;71.04
20015;BME280;61787;42.022;23.078;2023-03-21T04:12:47;96535.69;;;8.91;71.68
20015;BME280;61787;42.022;23.078;2023-03-21T04:13:49;96541.03;;;8.91;71.09
20015;BME280;61787;42.022;23.078;2023-03-21T04:14:50;96532.03;;;8.95;72.19
20015;BME280;61787;42.022;23.078;2023-03-21T04:15:55;96534.50;;;9.01;71.20
20015;BME280;61787;42.022;23.078;2023-03-21T04:16:57;96537.75;;;9.06;71.53
20015;BME280;61787;42.022;23.078;2023-03-21T04:17:58;96535.78;;;9.15;71.07
20015;BME280;61787;42.022;23.078;2023-03-21T04:19:00;96533.00;;;9.24;70.65
20015;BME280;61787;42.022;23.078;2023-03-21T04:20:03;96538.59;;;9.31;70.48
20015;BME280;61787;42.022;23.078;2023-03-21T04:21:15;96538.38;;;9.36;70.10
20015;BME280;61787;42.022;23.078;2023-03-21T04:22:17;96548.09;;;9.40;70.49
20015;BME280;61787;42.022;23.078;2023-03-21T04:23:18;96537.72;;;9.39;70.88
20015;BME280;61787;42.022;23.078;2023-03-21T04:24:20;96532.25;;;9.35;70.62
20015;BME280;61787;42.022;23.078;2023-03-21T04:25:22;96542.38;;;9.18;70.33
20015;BME280;61787;42.022;23.078;2023-03-21T04:26:34;96541.41;;;9.02;71.94
20015;BME280;61787;42.022;23.078;2023-03-21T04:27:36;96544.31;;;8.76;72.87
20015;BME280;61787;42.022;23.078;2023-03-21T04:28:38;96553.03;;;8.64;73.48
20015;BME280;61787;42.022;23.078;2023-03-21T04:29:40;96550.28;;;8.52;74.51
20015;BME280;61787;42.022;23.078;2023-03-21T04:30:42;96556.69;;;8.39;75.02
20015;BME280;61787;42.022;23.078;2023-03-21T04:32:01;96549.09;;;8.20;75.85
20015;BME280;61787;42.022;23.078;2023-03-21T04:33:04;96554.19;;;8.04;76.92
20015;BME280;61787;42.022;23.078;2023-03-21T04:34:06;96551.09;;;7.94;78.11
20015;BME280;61787;42.022;23.078;2023-03-21T04:35:10;96545.59;;;7.90;77.88
20015;BME280;61787;42.022;23.078;2023-03-21T04:36:12;96548.28;;;7.90;78.78
20015;BME280;61787;42.022;23.078;2023-03-21T04:37:25;96547.66;;;7.93;78.71
20015;BME280;61787;42.022;23.078;2023-03-21T04:38:28;96549.66;;;7.96;78.76
20015;BME280;61787;42.022;23.078;2023-03-21T04:39:31;96549.66;;;7.96;78.89
20015;BME280;61787;42.022;23.078;2023-03-21T04:40:33;96545.91;;;7.97;78.40
20015;BME280;61787;42.022;23.078;2023-03-21T04:41:34;96550.56;;;8.00;78.66
20015;BME280;61787;42.022;23.078;2023-03-21T04:42:37;96546.38;;;7.99;78.35
20015;BME280;61787;42.022;23.078;2023-03-21T04:43:39;96550.44;;;7.97;78.67
20015;BME280;61787;42.022;23.078;2023-03-21T04:44:41;96546.38;;;7.91;78.79
20015;BME280;61787;42.022;23.078;2023-03-21T04:45:43;96553.78;;;7.85;79.15
20015;BME280;61787;42.022;23.078;2023-03-21T04:46:44;96555.22;;;7.83;79.32
20015;BME280;61787;42.022;23.078;2023-03-21T04:47:46;96557.78;;;7.79;79.23
20015;BME280;61787;42.022;23.078;2023-03-21T04:48:48;96549.13;;;7.82;79.81
20015;BME280;61787;42.022;23.078;2023-03-21T04:49:50;96550.94;;;7.90;79.53
20015;BME280;61787;42.022;23.078;2023-03-21T04:50:52;96555.00;;;7.96;78.72
20015;BME280;61787;42.022;23.078;2023-03-21T04:51:53;96564.09;;;7.95;79.26
20015;BME280;61787;42.022;23.078;2023-03-21T04:52:55;96560.53;;;7.91;79.25
20015;BME280;61787;42.022;23.078;2023-03-21T04:53:56;96556.81;;;7.84;79.15
20015;BME280;61787;42.022;23.078;2023-03-21T04:54:58;96553.22;;;7.80;79.79
20015;BME280;61787;42.022;23.078;2023-03-21T04:55:59;96556.75;;;7.92;80.40
20015;BME280;61787;42.022;23.078;2023-03-21T04:57:01;96555.72;;;8.05;79.65
20015;BME280;61787;42.022;23.078;2023-03-21T04:58:04;96549.59;;;8.13;78.85
20015;BME280;61787;42.022;23.078;2023-03-21T04:59:09;96549.22;;;8.24;78.36
20015;BME280;61787;42.022;23.078;2023-03-21T05:00:12;96557.53;;;8.31;77.99
20015;BME280;61787;42.022;23.078;2023-03-21T05:01:16;96559.81;;;8.41;78.02
20015;BME280;61787;42.022;23.078;2023-03-21T05:02:21;96556.78;;;8.51;77.54
20015;BME280;61787;42.022;23.078;2023-03-21T05:03:23;96560.16;;;8.60;77.58
20015;BME280;61787;42.022;23.078;2023-03-21T05:04:26;96558.84;;;8.66;77.44
20015;BME280;61787;42.022;23.078;2023-03-21T05:05:28;96556.44;;;8.73;76.89
20015;BME280;61787;42.022;23.078;2023-03-21T05:06:30;96561.38;;;8.83;76.58
20015;BME280;61787;42.022;23.078;2023-03-21T05:07:32;96558.66;;;8.92;75.74
20015;BME280;61787;42.022;23.078;2023-03-21T05:08:34;96558.56;;;9.01;75.27
20015;BME280;61787;42.022;23.078;2023-03-21T05:09:36;96555.00;;;9.09;74.76
20015;BME280;61787;42.022;23.078;2023-03-21T05:10:38;96547.25;;;9.16;74.44
20015;BME280;61787;42.022;23.078;2023-03-21T05:11:40;96555.38;;;9.19;74.10
20015;BME280;61787;42.022;23.078;2023-03-21T05:12:42;96550.81;;;9.08;74.57
20015;BME280;61787;42.022;23.078;2023-03-21T05:13:43;96562.25;;;8.75;73.80
20015;BME280;61787;42.022;23.078;2023-03-21T05:14:45;96554.09;;;8.51;75.49
20015;BME280;61787;42.022;23.078;2023-03-21T05:15:47;96561.91;;;8.56;75.31
20015;BME280;61787;42.022;23.078;2023-03-21T05:16:48;96558.97;;;8.70;75.03
20015;BME280;61787;42.022;23.078;2023-03-21T05:17:54;96559.94;;;8.86;74.96
20015;BME280;61787;42.022;23.078;2023-03-21T05:18:56;96558.56;;;9.01;74.65
20015;BME280;61787;42.022;23.078;2023-03-21T05:19:59;96545.88;;;9.10;73.98
20015;BME280;61787;42.022;23.078;2023-03-21T05:21:01;96554.16;;;9.17;73.70
20015;BME280;61787;42.022;23.078;2023-03-21T05:22:06;96551.28;;;9.22;73.35
20015;BME280;61787;42.022;23.078;2023-03-21T05:23:09;96551.75;;;9.36;78.89
20015;BME280;61787;42.022;23.078;2023-03-21T05:24:17;96549.78;;;9.45;77.45
20015;BME280;61787;42.022;23.078;2023-03-21T05:25:20;96557.16;;;9.48;74.90
20015;BME280;61787;42.022;23.078;2023-03-21T05:26:35;96555.81;;;9.54;74.10
20015;BME280;61787;42.022;23.078;2023-03-21T05:27:37;96565.19;;;9.60;73.99
20015;BME280;61787;42.022;23.078;2023-03-21T05:28:39;96558.84;;;9.65;72.60
20015;BME280;61787;42.022;23.078;2023-03-21T05:29:40;96567.44;;;9.70;73.07
20015;BME280;61787;42.022;23.078;2023-03-21T05:30:42;96570.69;;;9.76;72.49
20015;BME280;61787;42.022;23.078;2023-03-21T05:31:44;96567.47;;;9.82;71.42
20015;BME280;61787;42.022;23.078;2023-03-21T05:32:46;96569.59;;;9.89;71.91
20015;BME280;61787;42.022;23.078;2023-03-21T05:33:48;96561.34;;;9.94;71.62
20015;BME280;61787;42.022;23.078;2023-03-21T05:34:49;96563.00;;;9.99;70.83
20015;BME280;61787;42.022;23.078;2023-03-21T05:35:51;96565.47;;;10.04;70.60
20015;BME280;61787;42.022;23.078;2023-03-21T05:36:53;96565.56;;;10.07;70.39
20015;BME280;61787;42.022;23.078;2023-03-21T05:37:56;96565.69;;;10.11;70.15
20015;BME280;61787;42.022;23.078;2023-03-21T05:38:57;96568.81;;;10.13;69.96
20015;BME280;61787;42.022;23.078;2023-03-21T05:39:59;96558.56;;;10.15;70.18
20015;BME280;61787;42.022;23.078;2023-03-21T05:41:00;96563.59;;;10.16;69.99
20015;BME280;61787;42.022;23.078;2023-03-21T05:42:02;96554.44;;;10.17;70.30
20015;BME280;61787;42.022;23.078;2023-03-21T05:43:04;96556.78;;;10.19;69.78
20015;BME280;61787;42.022;23.078;2023-03-21T05:44:06;96558.34;;;10.20;70.74
20015;BME280;61787;42.022;23.078;2023-03-21T05:45:07;96552.88;;;10.16;69.28
20015;BME280;61787;42.022;23.078;2023-03-21T05:46:09;96547.50;;;10.16;69.43
20015;BME280;61787;42.022;23.078;2023-03-21T05:47:13;96549.72;;;10.14;69.64
20015;BME280;61787;42.022;23.078;2023-03-21T05:48:15;96552.88;;;10.16;69.88
20015;BME280;61787;42.022;23.078;2023-03-21T05:49:16;96546.72;;;10.16;70.71
20015;BME280;61787;42.022;23.078;2023-03-21T05:50:18;96555.88;;;10.15;70.48
20015;BME280;61787;42.022;23.078;2023-03-21T05:51:20;96541.94;;;10.09;70.38
20015;BME280;61787;42.022;23.078;2023-03-21T05:52:22;96548.94;;;10.02;70.24
20015;BME280;61787;42.022;23.078;2023-03-21T05:53:24;96553.63;;;9.93;71.19
20015;BME280;61787;42.022;23.078;2023-03-21T05:54:25;96552.06;;;9.92;71.50
20015;BME280;61787;42.022;23.078;2023-03-21T05:55:27;96553.63;;;9.93;70.87
20015;BME280;61787;42.022;23.078;2023-03-21T05:56:28;96547.50;;;9.92;71.69
20015;BME280;61787;42.022;23.078;2023-03-21T05:57:30;96552.06;;;9.92;71.93
20015;BME280;61787;42.022;23.078;2023-03-21T05:58:35;96550.28;;;9.83;70.47
20015;BME280;61787;42.022;23.078;2023-03-21T05:59:36;96555.06;;;9.66;70.86
20015;BME280;61787;42.022;23.078;2023-03-21T06:00:38;96560.06;;;9.55;71.74
20015;BME280;61787;42.022;23.078;2023-03-21T06:01:40;96572.34;;;9.56;72.39
20015;BME280;61787;42.022;23.078;2023-03-21T06:02:42;96564.19;;;9.65;72.13
20015;BME280;61787;42.022;23.078;2023-03-21T06:03:43;96569.13;;;9.75;72.18
20015;BME280;61787;42.022;23.078;2023-03-21T06:04:45;96568.38;;;9.74;72.01
20015;BME280;61787;42.022;23.078;2023-03-21T06:05:47;96560.72;;;9.52;71.96
20015;BME280;61787;42.022;23.078;2023-03-21T06:06:49;96559.00;;;9.35;72.86
20015;BME280;61787;42.022;23.078;2023-03-21T06:07:52;96562.22;;;9.29;72.91
20015;BME280;61787;42.022;23.078;2023-03-21T06:08:53;96564.25;;;9.32;73.40
20015;BME280;61787;42.022;23.078;2023-03-21T06:09:55;96559.88;;;9.27;73.24
20015;BME280;61787;42.022;23.078;2023-03-21T06:10:57;96560.41;;;9.21;73.51
20015;BME280;61787;42.022;23.078;2023-03-21T06:12:01;96564.47;;;9.27;73.47
20015;BME280;61787;42.022;23.078;2023-03-21T06:13:03;96559.22;;;9.30;75.01
20015;BME280;61787;42.022;23.078;2023-03-21T06:14:05;96563.19;;;9.57;75.71
20015;BME280;61787;42.022;23.078;2023-03-21T06:15:07;96559.28;;;9.55;73.25
20015;BME280;61787;42.022;23.078;2023-03-21T06:16:09;96555.59;;;9.59;73.57
20015;BME280;61787;42.022;23.078;2023-03-21T06:17:11;96552.94;;;9.71;72.54